Time;durP1;ratioP1;P1;durP2;ratioP2;P2;SDS_P1;SDS_P2;PMS_P1;PMS_P2;Temp;Humidity;BMP_temperature;BMP_pressure;BME280_temperature;BME280_humidity;BME280_pressure;Samples;Min_cycle;Max_cycle;Signal;HPM_P1;HPM_P2
2022/05/16 00:02:02;;;;;;;4.35;3.60;;;;;;;22.73;42.76;100982.98;1719301;82;21125;-78
2022/05/16 00:04:29;;;;;;;3.90;3.47;;;;;;;22.72;42.79;100979.95;1742825;81;21484;-78
2022/05/16 00:06:55;;;;;;;3.92;3.50;;;;;;;22.72;42.84;100984.94;1742031;82;21074;-78
2022/05/16 00:09:21;;;;;;;4.05;3.22;;;;;;;22.72;42.90;100984.94;1742275;82;21140;-78
2022/05/16 00:11:48;;;;;;;4.92;3.30;;;;;;;22.72;42.91;100982.16;1742504;82;21548;-78
2022/05/16 00:14:14;;;;;;;4.10;3.42;;;;;;;22.72;42.89;100980.77;1742300;80;21141;-79
2022/05/16 00:16:40;;;;;;;4.08;3.30;;;;;;;22.72;42.90;100978.56;1742509;82;21187;-78
2022/05/16 00:19:07;;;;;;;3.92;3.30;;;;;;;22.72;42.90;100984.11;1719142;82;21428;-78
2022/05/16 00:21:33;;;;;;;3.98;3.45;;;;;;;22.71;42.90;100988.84;1742254;82;21057;-78
2022/05/16 00:23:59;;;;;;;5.47;3.37;;;;;;;22.72;42.91;100992.44;1742536;82;21129;-77
2022/05/16 00:26:26;;;;;;;3.70;3.00;;;;;;;22.72;42.92;100986.32;1742363;82;21058;-78
2022/05/16 00:28:52;;;;;;;4.25;3.20;;;;;;;22.71;42.95;100985.25;1741984;82;21195;-78
2022/05/16 00:31:18;;;;;;;5.08;3.22;;;;;;;22.72;42.97;100984.11;1742332;82;21053;-78
2022/05/16 00:33:45;;;;;;;4.08;3.42;;;;;;;22.72;43.02;100979.95;1742562;82;21081;-78
2022/05/16 00:36:11;;;;;;;3.98;3.40;;;;;;;22.71;43.04;100984.69;1742397;82;21188;-78
2022/05/16 00:38:37;;;;;;;4.12;3.50;;;;;;;22.72;43.06;100984.11;1742130;82;21117;-78
2022/05/16 00:41:04;;;;;;;5.53;3.42;;;;;;;22.71;43.07;100980.52;1742177;82;20958;-78
2022/05/16 00:43:54;;;;;;;4.15;2.98;;;;;;;22.71;43.09;100982.48;1742130;82;21073;-78
2022/05/16 00:46:20;;;;;;;3.92;3.20;;;;;;;22.71;43.11;100978.31;1742370;82;21121;-78
2022/05/16 00:48:47;;;;;;;4.08;3.45;;;;;;;22.70;43.14;100978.88;1741910;82;21204;-78
2022/05/16 00:51:22;;;;;;;4.65;3.25;;;;;;;22.72;43.17;100978.56;1741818;81;21584;-78
2022/05/16 00:53:51;;;;;;;4.47;3.72;;;;;;;22.71;43.18;100979.70;1742177;82;21085;-78
2022/05/16 00:56:17;;;;;;;5.17;3.30;;;;;;;22.70;43.20;100976.11;1741990;82;21081;-78
2022/05/16 00:58:50;;;;;;;4.10;3.27;;;;;;;22.70;43.20;100977.50;1727976;82;21504;-78
2022/05/16 01:06:47;;;;;;;3.62;2.90;;;;;;;22.68;43.18;100978.38;1758681;81;21087;-78
2022/05/16 01:09:13;;;;;;;3.58;3.20;;;;;;;22.67;43.14;100980.91;1769921;79;21036;-78
2022/05/16 01:11:39;;;;;;;5.22;3.20;;;;;;;22.67;43.09;100980.91;1770399;80;21017;-78
2022/05/16 01:14:12;;;;;;;4.97;3.40;;;;;;;22.68;43.08;100981.72;1770409;81;21020;-78
2022/05/16 01:16:38;;;;;;;4.15;2.90;;;;;;;22.67;43.06;100977.31;1770107;79;20991;-78
2022/05/16 01:19:04;;;;;;;3.72;3.17;;;;;;;22.67;43.04;100978.12;1770399;81;21041;-78
2022/05/16 01:21:38;;;;;;;5.25;3.58;;;;;;;22.68;42.98;100979.77;1770283;81;21744;-78
2022/05/16 01:24:14;;;;;;;4.15;3.15;;;;;;;22.68;42.98;100978.95;1770381;81;21056;-78
2022/05/16 01:26:41;;;;;;;4.55;3.33;;;;;;;22.68;42.92;100978.95;1770397;80;21139;-78
2022/05/16 01:29:07;;;;;;;4.47;3.22;;;;;;;22.67;42.89;100980.91;1769801;81;21025;-78
2022/05/16 01:31:33;;;;;;;4.10;3.25;;;;;;;22.68;42.88;100979.77;1770444;81;20929;-78
2022/05/16 01:34:00;;;;;;;4.67;3.10;;;;;;;22.68;42.89;100977.56;1770494;79;21045;-78
2022/05/16 01:36:26;;;;;;;4.45;3.20;;;;;;;22.67;42.88;100973.97;1770264;80;21721;-78
2022/05/16 01:38:52;;;;;;;4.22;3.60;;;;;;;22.67;42.88;100982.30;1748756;81;22116;-78
2022/05/16 01:41:22;;;;;;;3.15;2.85;;;;;;;22.67;42.87;100975.36;1770360;81;21033;-78
2022/05/16 01:43:55;;;;;;;4.15;3.27;;;;;;;22.67;42.91;100975.36;1770142;80;21044;-78
2022/05/16 01:46:26;;;;;;;3.80;3.30;;;;;;;22.67;42.94;100970.38;1770507;80;21578;-78
2022/05/16 01:48:52;;;;;;;;;;;;;;;22.67;42.98;100975.36;1735412;81;21122;-78
2022/05/16 01:51:19;;;;;;;4.28;3.40;;;;;;;22.65;43.01;100972.11;1704235;82;21136;-79
2022/05/16 01:53:45;;;;;;;4.70;3.30;;;;;;;22.65;43.02;100975.45;1733455;82;20989;-78
2022/05/16 01:56:18;;;;;;;5.28;3.27;;;;;;;22.65;43.07;100976.27;1712358;83;21051;-78
2022/05/16 01:58:44;;;;;;;3.80;3.25;;;;;;;22.65;43.10;100979.05;1712112;81;21595;-78
2022/05/16 02:01:12;;;;;;;5.95;3.25;;;;;;;22.65;43.15;100981.82;1712606;83;21100;-78
2022/05/16 02:03:40;;;;;;;4.20;3.25;;;;;;;22.64;43.17;100976.02;1712180;82;21161;-78
2022/05/16 02:06:06;;;;;;;5.12;3.35;;;;;;;22.65;43.20;100976.27;1712416;83;21065;-78
2022/05/16 02:08:39;;;;;;;3.98;3.27;;;;;;;22.65;43.23;100979.05;1712503;83;21116;-78
2022/05/16 02:11:06;;;;;;;3.87;3.30;;;;;;;22.64;43.27;100974.63;1712264;83;21142;-78
2022/05/16 02:13:34;;;;;;;5.42;3.47;;;;;;;22.65;43.26;100982.38;1712592;83;21685;-78
2022/05/16 02:16:00;;;;;;;4.58;3.33;;;;;;;22.65;43.30;100981.82;1767427;79;21241;-78
2022/05/16 02:18:26;;;;;;;4.55;3.55;;;;;;;22.65;43.31;100975.45;1778617;80;21491;-78
2022/05/16 02:24:38;;;;;;;4.40;3.55;;;;;;;22.65;43.33;100977.66;1774426;79;21049;-78
2022/05/16 02:26:06;;;;;;;4.95;3.25;;;;;;;22.63;43.35;100974.38;1751982;79;22096;-78
2022/05/16 02:28:32;;;;;;;4.22;3.55;;;;;;;22.65;43.36;100975.45;1770620;81;21214;-79
2022/05/16 02:30:58;;;;;;;4.22;3.83;;;;;;;22.65;43.39;100975.45;1770454;81;21064;-78
2022/05/16 02:33:25;;;;;;;5.50;3.65;;;;;;;22.65;43.41;100982.38;1770486;81;21005;-78
2022/05/16 02:35:51;;;;;;;4.20;3.62;;;;;;;22.64;43.41;100973.81;1770671;81;20997;-78
2022/05/16 02:38:24;;;;;;;4.72;3.33;;;;;;;22.64;43.41;100977.97;1770576;81;21033;-78
2022/05/16 02:40:50;;;;;;;5.42;3.52;;;;;;;22.64;43.38;100988.50;1769901;79;21575;-78
2022/05/16 02:43:16;;;;;;;4.60;3.35;;;;;;;22.65;43.39;100990.70;1770252;81;21037;-78
2022/05/16 02:45:42;;;;;;;5.10;3.65;;;;;;;22.64;43.35;100987.11;1770545;79;21033;-78
2022/05/16 02:48:09;;;;;;;5.50;3.42;;;;;;;22.64;43.35;100987.11;1770098;81;21107;-78
2022/05/16 02:50:35;;;;;;;5.42;3.50;;;;;;;22.65;43.33;100983.77;1770327;81;21700;-78
2022/05/16 02:53:01;;;;;;;6.87;3.40;;;;;;;22.64;43.33;100991.27;1770459;80;21994;-78
2022/05/16 02:55:29;;;;;;;4.22;3.45;;;;;;;22.65;43.31;100989.31;1770059;80;21530;-78
2022/05/16 02:57:55;;;;;;;3.85;3.40;;;;;;;22.64;43.27;100995.44;1773559;78;21033;-78
2022/05/16 03:00:22;;;;;;;5.00;3.15;;;;;;;22.64;43.25;100992.66;1805278;78;21549;-78
2022/05/16 03:02:48;;;;;;;5.40;3.62;;;;;;;22.64;43.24;100995.44;1813693;79;21539;-78
2022/05/16 03:05:15;;;;;;;3.80;3.40;;;;;;;22.64;43.25;101000.98;1813760;79;21241;-78
2022/05/16 03:07:41;;;;;;;4.83;3.50;;;;;;;22.65;43.28;101001.23;1813786;79;21044;-78
2022/05/16 03:10:08;;;;;;;3.70;3.30;;;;;;;22.64;43.31;100998.20;1813221;78;21766;-78
2022/05/16 03:12:34;;;;;;;3.85;3.47;;;;;;;22.64;43.34;101005.14;1813742;79;21543;-78
2022/05/16 03:15:01;;;;;;;3.60;3.20;;;;;;;22.64;43.37;101001.55;1813795;79;21558;-78
2022/05/16 03:17:27;;;;;;;4.22;3.60;;;;;;;22.64;43.37;101005.70;1813351;79;21931;-78
2022/05/16 03:19:54;;;;;;;3.90;3.50;;;;;;;22.64;43.43;101008.48;1813474;78;21056;-78
2022/05/16 03:22:20;;;;;;;4.05;3.12;;;;;;;22.64;43.47;101009.30;1813622;79;21475;-78
2022/05/16 03:24:47;;;;;;;5.03;3.98;;;;;;;22.64;43.48;101012.07;1813526;79;21103;-78
2022/05/16 03:27:13;;;;;;;3.92;3.42;;;;;;;22.63;43.51;101006.84;1813710;79;21091;-78
2022/05/16 03:29:41;;;;;;;4.78;4.05;;;;;;;22.64;43.53;101014.84;1813542;78;21031;-78
2022/05/16 03:32:07;;;;;;;4.12;3.67;;;;;;;22.64;43.54;101013.45;1813282;79;21036;-78
2022/05/16 03:34:34;;;;;;;4.33;3.92;;;;;;;22.64;43.57;101019.58;1813450;78;21594;-78
2022/05/16 03:37:00;;;;;;;6.05;4.12;;;;;;;22.64;43.56;101023.73;1813766;78;21052;-78
2022/05/16 03:42:11;;;;;;;5.62;4.87;;;;;;;22.63;43.58;101027.08;1813383;78;21081;-78
2022/05/16 03:44:37;;;;;;;5.83;4.65;;;;;;;22.61;43.64;101034.92;1813166;79;21799;-78
2022/05/16 03:47:04;;;;;;;5.53;4.85;;;;;;;22.62;43.69;101037.09;1790903;78;21043;-78
2022/05/16 03:49:31;;;;;;;6.10;4.95;;;;;;;22.61;43.87;101035.48;1813383;78;21137;-80
2022/05/16 03:51:59;;;;;;;6.60;4.42;;;;;;;22.59;43.99;101039.14;1813437;78;21040;-79
2022/05/16 03:54:25;;;;;;;5.87;4.90;;;;;;;22.58;44.00;101036.94;1813562;79;21141;-80
2022/05/16 03:56:51;;;;;;;7.33;4.83;;;;;;;22.58;44.05;101038.89;1791129;79;21004;-80
2022/05/16 03:59:18;;;;;;;4.75;3.83;;;;;;;22.59;44.07;101043.30;1809207;78;21570;-80
2022/05/16 04:01:44;;;;;;;9.70;6.12;;;;;;;22.58;44.08;101035.55;1797428;79;21053;-79
2022/05/16 04:04:11;;;;;;;6.70;4.85;;;;;;;22.59;44.25;101046.89;1797322;79;21072;-80
2022/05/16 04:06:38;;;;;;;9.48;6.17;;;;;;;22.58;44.35;101048.59;1796871;79;21197;-79
2022/05/16 04:09:04;;;;;;;26.73;6.35;;;;;;;22.57;44.46;101054.73;1797516;79;21076;-79
2022/05/16 04:11:30;;;;;;;37.03;7.45;;;;;;;22.56;44.61;101056.44;1797578;79;21084;-79
2022/05/16 04:13:58;;;;;;;35.85;7.85;;;;;;;22.56;44.68;101053.66;1797235;79;21025;-79
2022/05/16 04:16:24;;;;;;;21.52;6.58;;;;;;;22.56;44.77;101056.44;1777557;78;21099;-79
2022/05/16 04:18:50;;;;;;;13.62;7.20;;;;;;;22.54;44.81;101058.14;1826610;77;21147;-79
2022/05/16 04:21:16;;;;;;;12.47;7.50;;;;;;;22.55;44.94;101059.78;1818388;78;21547;-79
2022/05/16 04:23:43;;;;;;;11.80;7.17;;;;;;;22.53;45.03;101059.27;1800413;77;20929;-80
2022/05/16 04:26:09;;;;;;;12.58;6.72;;;;;;;22.53;45.17;101058.48;1829216;77;20996;-80
2022/05/16 04:28:36;;;;;;;13.22;7.80;;;;;;;22.51;45.24;101065.73;1824950;77;21013;-83
2022/05/16 04:31:02;;;;;;;19.70;7.72;;;;;;;22.52;45.38;101073.48;1823644;78;21065;-82
2022/05/16 04:33:28;;;;;;;15.98;7.55;;;;;;;22.51;45.48;101076.00;1813403;78;21012;-82
2022/05/16 04:35:55;;;;;;;10.98;6.95;;;;;;;22.49;45.60;101078.30;1784570;78;21037;-83
2022/05/16 04:38:21;;;;;;;16.42;7.40;;;;;;;22.46;45.63;101078.92;1816578;76;21038;-80
2022/05/16 04:43:34;;;;;;;12.35;6.10;;;;;;;22.45;45.67;101082.26;1822950;76;21417;-80
2022/05/16 04:46:05;;;;;;;14.03;5.55;;;;;;;22.40;45.54;101081.05;1759678;79;21537;-78
2022/05/16 04:48:32;;;;;;;13.80;5.30;;;;;;;22.38;45.42;101081.93;1746275;79;21062;-77
2022/05/16 04:50:58;;;;;;;13.68;5.22;;;;;;;22.35;45.35;101077.61;1747643;79;21041;-77
2022/05/16 04:53:24;;;;;;;11.53;5.22;;;;;;;22.35;45.26;101083.97;1754071;80;21149;-80
2022/05/16 04:55:51;;;;;;;12.53;5.03;;;;;;;22.32;45.10;101077.66;1747739;79;21089;-78
2022/05/16 04:58:17;;;;;;;10.80;5.28;;;;;;;22.29;45.03;101077.75;1747808;79;22296;-78
2022/05/16 05:00:43;;;;;;;15.05;4.70;;;;;;;22.26;45.07;101083.95;1759912;79;21057;-80
2022/05/16 05:03:11;;;;;;;9.70;5.10;;;;;;;22.24;45.16;101084.00;1724714;79;21362;-85
2022/05/16 05:05:37;;;;;;;18.82;4.70;;;;;;;22.22;45.26;101081.58;1768415;79;21044;-78
2022/05/16 05:08:04;;;;;;;13.90;4.28;;;;;;;22.23;45.29;101087.38;1758707;79;22090;-82
2022/05/16 05:16:03;;;;;;;10.28;3.90;;;;;;;;;;1748933;80;21129;-81
2022/05/16 05:18:31;;;;;;;10.70;4.50;;;;;;;22.32;45.32;101106.77;1761705;79;21467;-80
2022/05/16 05:20:58;;;;;;;11.60;4.50;;;;;;;22.32;45.34;101105.38;1764180;80;21809;-80
2022/05/16 05:23:45;;;;;;;10.85;4.47;;;;;;;22.35;45.30;101111.69;1609927;87;21109;-80
2022/05/16 05:26:12;;;;;;;6.65;4.17;;;;;;;22.37;45.22;101110.78;1682175;83;21059;-79
2022/05/16 05:28:41;;;;;;;5.40;3.60;;;;;;;22.39;45.20;101120.17;1655359;85;21060;-82
2022/05/16 05:31:12;;;;;;;12.35;4.00;;;;;;;22.39;45.18;101116.84;1659639;84;21098;-79
2022/05/16 05:33:38;;;;;;;20.45;4.55;;;;;;;22.39;45.14;101114.63;1650938;85;21571;-80
2022/05/16 05:36:06;;;;;;;13.70;3.98;;;;;;;22.39;45.10;101111.30;1665783;84;21104;-82
2022/05/16 05:38:32;;;;;;;10.78;4.50;;;;;;;22.40;45.07;101112.11;1669208;84;21628;-80
2022/05/16 05:40:58;;;;;;;9.95;4.55;;;;;;;22.40;45.09;101113.50;1664335;84;21721;-81
2022/05/16 05:43:25;;;;;;;6.85;4.37;;;;;;;22.41;45.02;101123.42;1661599;84;21072;-81
2022/05/16 05:45:51;;;;;;;13.25;4.70;;;;;;;22.39;44.98;101118.22;1661506;84;22252;-82
2022/05/16 05:48:18;;;;;;;7.20;4.20;;;;;;;22.38;44.92;101124.90;1656995;85;21193;-87
2022/05/16 05:50:47;;;;;;;8.45;4.03;;;;;;;22.37;44.94;101126.59;1657081;84;21063;-78
2022/05/16 05:53:14;;;;;;;9.33;4.37;;;;;;;22.32;44.95;101128.94;1662159;84;21186;-78
2022/05/16 05:55:40;;;;;;;11.38;4.62;;;;;;;22.26;44.85;101129.68;1660322;84;21076;-76
2022/05/16 05:58:06;;;;;;;13.95;4.15;;;;;;;22.23;44.98;101146.14;1666654;84;21595;-77
2022/05/16 06:00:33;;;;;;;9.80;3.87;;;;;;;22.22;44.97;101142.55;1667212;84;21076;-78
2022/05/16 06:03:00;;;;;;;20.55;4.08;;;;;;;22.25;44.91;101139.69;1662539;84;21091;-78
2022/05/16 06:05:27;;;;;;;18.92;4.40;;;;;;;22.27;44.88;101144.36;1664500;83;21188;-80
2022/05/16 06:08:01;;;;;;;8.63;3.40;;;;;;;22.29;44.95;101140.12;1690438;83;21198;-82
2022/05/16 06:10:27;;;;;;;10.35;3.77;;;;;;;22.30;44.76;101134.83;1667253;83;21328;-82
2022/05/16 06:12:54;;;;;;;9.58;3.55;;;;;;;22.32;44.60;101130.33;1693992;82;21095;-79
2022/05/16 06:15:20;;;;;;;15.78;3.95;;;;;;;22.32;44.49;101131.72;1703088;83;21684;-77
2022/05/16 06:17:47;;;;;;;18.30;3.83;;;;;;;22.33;44.40;101131.97;1695757;83;21128;-79
2022/05/16 06:20:15;;;;;;;8.60;3.60;;;;;;;22.34;44.34;101132.23;1708213;83;21118;-78
2022/05/16 06:22:43;;;;;;;8.50;3.75;;;;;;;22.35;44.26;101131.66;1712937;81;21154;-78
2022/05/16 06:25:33;;;;;;;8.13;3.27;;;;;;;22.36;44.36;101146.59;1723042;80;21105;-77
2022/05/16 06:28:19;;;;;;;9.60;3.50;;;;;;;22.37;44.38;101142.66;1724851;81;21136;-79
2022/05/16 06:30:48;;;;;;;11.00;3.62;;;;;;;22.38;44.27;101151.80;1710406;82;21084;-80
2022/05/16 06:33:15;;;;;;;13.22;3.40;;;;;;;22.39;44.26;101147.90;1711020;82;21086;-82
2022/05/16 06:35:45;;;;;;;9.28;2.98;;;;;;;22.39;44.19;101154.27;1710244;82;21135;-86
2022/05/16 06:38:16;;;;;;;9.48;3.72;;;;;;;22.39;44.08;101166.73;1709013;82;21073;-78
2022/05/16 06:40:48;;;;;;;9.08;3.33;;;;;;;22.40;44.09;101165.61;1703192;81;21030;-82
2022/05/16 06:43:16;;;;;;;6.37;2.92;;;;;;;22.42;44.09;101168.86;1702883;82;21066;-85
2022/05/16 06:45:56;;;;;;;8.88;3.95;;;;;;;22.42;44.06;101178.56;1692597;81;48199;-90
2022/05/16 06:48:23;;;;;;;5.70;3.25;;;;;;;22.43;44.08;101167.73;1712629;81;21059;-79
2022/05/16 06:50:50;;;;;;;15.70;3.92;;;;;;;22.42;43.96;101170.81;1706263;81;21635;-80
2022/05/16 06:53:26;;;;;;;10.23;3.55;;;;;;;22.41;44.07;101163.63;1702255;82;21053;-86
2022/05/16 06:55:53;;;;;;;14.50;3.27;;;;;;;22.39;44.02;101160.38;1715731;82;21058;-80
2022/05/16 06:58:21;;;;;;;15.05;3.15;;;;;;;22.37;43.93;101154.31;1701568;82;21097;-83
2022/05/16 07:00:50;;;;;;;8.50;2.90;;;;;;;22.34;43.87;101148.86;1721089;81;21981;-82
2022/05/16 07:03:16;;;;;;;35.15;3.98;;;;;;;22.30;43.84;101152.84;1715937;81;21133;-78
2022/05/16 07:05:49;;;;;;;16.42;3.72;;;;;;;22.30;44.10;101157.00;1725826;81;21084;-77
2022/05/16 07:08:17;;;;;;;18.90;3.22;;;;;;;22.31;44.21;101157.26;1706158;82;21121;-80
2022/05/16 07:10:43;;;;;;;8.20;3.40;;;;;;;22.34;44.32;101159.95;1702985;82;20987;-85
2022/05/16 07:13:10;;;;;;;9.40;3.22;;;;;;;22.35;44.40;101156.05;1706831;82;21588;-83
2022/05/16 07:15:36;;;;;;;7.25;3.60;;;;;;;22.38;44.52;101158.73;1728240;81;21075;-81
2022/05/16 07:18:12;;;;;;;8.85;2.75;;;;;;;22.38;44.39;101155.39;1716066;81;21789;-77
2022/05/16 07:20:39;;;;;;;8.80;2.47;;;;;;;22.39;44.38;101148.72;1717239;81;21076;-86
2022/05/16 07:23:05;;;;;;;8.75;3.00;;;;;;;22.41;44.14;101145.61;1716954;81;21622;-84
2022/05/16 07:27:56;;;;;;;10.80;2.75;;;;;;;22.42;44.08;101148.06;1678814;83;21568;-86
2022/05/16 07:28:00;;;;;;;11.05;3.08;;;;;;;22.44;44.17;101149.14;1696122;83;21115;-84
2022/05/16 07:30:29;;;;;;;9.48;2.70;;;;;;;22.46;44.08;101147.67;1697695;83;21158;-84
2022/05/16 07:32:58;;;;;;;6.20;2.85;;;;;;;22.48;44.06;101155.11;1707473;83;21828;-85
2022/05/16 07:35:28;;;;;;;7.87;2.65;;;;;;;22.49;44.03;101154.55;1686471;83;21093;-82
2022/05/16 07:37:54;;;;;;;5.53;2.25;;;;;;;22.50;43.93;101158.36;1706668;83;21066;-83
2022/05/16 07:40:27;;;;;;;9.00;2.72;;;;;;;22.51;43.83;101159.19;1695438;82;21100;-81
2022/05/16 07:42:54;;;;;;;8.20;2.60;;;;;;;22.51;43.77;101164.16;1704879;82;21725;-81
2022/05/16 07:45:23;;;;;;;6.08;2.60;;;;;;;22.52;43.65;101158.05;1705879;82;21104;-83
2022/05/16 07:47:49;;;;;;;5.47;2.62;;;;;;;22.50;43.59;101162.52;1699361;82;21041;-81
2022/05/16 07:50:18;;;;;;;14.13;3.25;;;;;;;22.50;43.69;101161.13;1703825;82;21163;-83
2022/05/16 07:52:48;;;;;;;32.45;4.17;;;;;;;22.50;43.88;101163.91;1702177;82;21044;-84
2022/05/16 07:55:18;;;;;;;21.93;3.92;;;;;;;22.50;44.01;101158.36;1680833;82;21012;-81
2022/05/16 07:57:44;;;;;;;18.17;3.30;;;;;;;22.52;44.23;101159.44;1700097;82;21061;-85
2022/05/16 08:00:13;;;;;;;27.77;3.72;;;;;;;22.54;44.57;101171.83;1707890;82;21052;-82
2022/05/16 08:02:40;;;;;;;17.12;3.75;;;;;;;22.55;44.75;101162.95;1696319;83;21159;-82
2022/05/16 08:05:11;;;;;;;23.25;4.03;;;;;;;22.55;44.94;101166.53;1701089;82;21044;-80
2022/05/16 08:10:29;;;;;;;17.25;3.70;;;;;;;22.57;45.24;101169.00;1700518;82;21607;-82
2022/05/16 08:10:33;;;;;;;15.30;3.60;;;;;;;22.58;45.46;101167.27;1696281;82;21154;-83
2022/05/16 08:13:00;;;;;;;;;;;;;;;22.59;45.50;101166.14;1701384;82;21495;-81
2022/05/16 08:15:27;;;;;;;9.35;3.08;;;;;;;22.60;45.41;101171.12;1695310;82;21147;-79
2022/05/16 08:17:55;;;;;;;11.15;2.83;;;;;;;22.58;45.27;101179.75;1698018;82;21701;-79
2022/05/16 08:20:22;;;;;;;10.65;3.20;;;;;;;22.59;45.23;101175.02;1698408;82;21070;-82
2022/05/16 08:22:48;;;;;;;7.28;2.42;;;;;;;22.60;45.15;101175.28;1700627;82;22231;-82
2022/05/16 08:25:17;;;;;;;6.50;2.87;;;;;;;22.61;45.06;101174.97;1703178;82;21650;-82
2022/05/16 08:27:44;;;;;;;8.60;2.60;;;;;;;22.60;44.91;101171.12;1703498;81;21166;-85
2022/05/16 08:30:13;;;;;;;12.95;2.27;;;;;;;22.61;44.78;101164.44;1703202;81;20993;-83
2022/05/16 08:32:40;;;;;;;7.80;2.50;;;;;;;22.62;44.69;101171.59;1693815;81;21184;-83
2022/05/16 08:35:09;;;;;;;8.45;3.00;;;;;;;22.61;44.57;101169.42;1708463;81;21128;-82
2022/05/16 08:40:19;;;;;;;6.25;2.50;;;;;;;22.61;44.60;101159.72;1633850;86;22037;-85
2022/05/16 08:42:54;;;;;;;14.18;3.08;;;;;;;22.63;44.50;101163.53;1625094;82;21510;-86
2022/05/16 08:45:37;;;;;;;16.37;3.70;;;;;;;22.63;44.65;101165.73;1715338;81;21586;-81
2022/05/16 08:48:22;;;;;;;9.65;2.75;;;;;;;22.65;44.76;101166.81;1721975;81;21598;-82
2022/05/16 08:50:57;;;;;;;17.45;3.10;;;;;;;22.66;45.15;101165.68;1698132;82;21079;-82
2022/05/16 08:53:40;;;;;;;17.12;4.03;;;;;;;22.67;45.42;101163.95;1714892;82;22464;-82
2022/05/16 08:56:09;;;;;;;8.73;3.27;;;;;;;22.67;45.58;101158.41;1708056;82;21079;-79
2022/05/16 08:58:46;;;;;;;7.60;2.75;;;;;;;22.69;45.67;101160.90;1714907;81;21152;-80
2022/05/16 09:01:26;;;;;;;8.58;2.90;;;;;;;22.68;45.70;101162.00;1708445;82;21048;-82
2022/05/16 09:04:00;;;;;;;19.77;3.10;;;;;;;22.69;45.68;101160.90;1719715;82;21135;-81
2022/05/16 09:06:38;;;;;;;13.62;3.17;;;;;;;22.66;45.50;101160.92;1716179;82;22402;-80
2022/05/16 09:09:15;;;;;;;17.92;3.72;;;;;;;22.65;45.44;101155.72;1706659;81;21068;-83
2022/05/16 09:11:58;;;;;;;8.83;3.50;;;;;;;22.66;45.51;101157.36;1698154;83;20917;-81
2022/05/16 09:14:57;;;;;;;4.42;2.40;;;;;;;22.65;45.48;101159.88;1711074;82;21493;-81
2022/05/16 09:17:58;;;;;;;7.40;2.58;;;;;;;22.65;45.39;101156.55;1696137;82;21073;-79
2022/05/16 09:20:53;;;;;;;;;;;;;;;22.61;45.21;101151.39;1708072;83;21923;-80
2022/05/16 09:23:33;;;;;;;6.75;2.60;;;;;;;22.59;45.18;101150.06;1696801;82;20199;-82
2022/05/16 09:26:38;;;;;;;7.97;2.70;;;;;;;22.57;45.12;101154.56;1702707;82;21886;-82
2022/05/16 09:29:26;;;;;;;4.90;2.65;;;;;;;22.57;44.96;101150.41;1690204;82;21237;-83
2022/05/16 09:31:56;;;;;;;6.42;2.85;;;;;;;22.58;44.99;101149.25;1704161;82;21173;-81
2022/05/16 09:34:25;;;;;;;8.28;3.12;;;;;;;22.60;44.87;101150.32;1705006;82;21682;-81
2022/05/16 09:36:51;;;;;;;3.75;2.42;;;;;;;22.61;44.77;101146.41;1710951;82;21103;-81
2022/05/16 09:39:24;;;;;;;10.38;2.92;;;;;;;22.62;44.72;101152.19;1706662;82;21140;-79
2022/05/16 09:42:11;;;;;;;8.43;3.10;;;;;;;22.63;44.65;101151.87;1710263;82;21075;-80
2022/05/16 09:44:48;;;;;;;12.60;3.10;;;;;;;22.63;44.58;101150.48;1714369;81;21064;-79
2022/05/16 09:47:35;;;;;;;10.13;3.42;;;;;;;22.64;44.62;101148.53;1712255;83;21129;-82
2022/05/16 09:50:21;;;;;;;12.35;3.52;;;;;;;22.65;44.62;101146.02;1714904;82;21048;-80
2022/05/16 09:53:02;;;;;;;9.93;3.05;;;;;;;22.67;44.66;101141.77;1708148;81;21091;-79
2022/05/16 09:55:43;;;;;;;6.72;3.52;;;;;;;22.71;44.72;101145.55;1706272;82;21497;-81
2022/05/16 09:58:19;;;;;;;9.38;2.98;;;;;;;22.73;44.81;101135.53;1676300;84;21091;-81
2022/05/16 10:01:04;;;;;;;12.78;2.98;;;;;;;22.76;44.77;101134.31;1680457;84;21326;-80
2022/05/16 10:03:43;;;;;;;16.25;3.55;;;;;;;22.81;44.54;101131.13;1668343;84;21434;-81
2022/05/16 10:06:29;;;;;;;8.95;2.65;;;;;;;22.85;44.51;101133.50;1672985;84;21725;-80
2022/05/16 10:08:55;;;;;;;8.98;2.70;;;;;;;22.87;44.39;101131.23;1665298;84;21112;-80
2022/05/16 10:11:26;;;;;;;5.65;2.62;;;;;;;22.90;44.09;101141.67;1676842;84;21114;-80
2022/05/16 10:13:54;;;;;;;;;;;;;;;22.89;43.77;101131.14;1647318;84;21574;-79
2022/05/16 10:16:20;;;;;;;4.67;2.30;;;;;;;22.92;43.42;101125.50;1668939;84;20471;-79
2022/05/16 10:18:54;;;;;;;5.42;2.50;;;;;;;22.92;43.54;101122.16;1674051;84;21068;-78
2022/05/16 10:21:28;;;;;;;5.30;2.22;;;;;;;22.94;43.34;101123.23;1707534;82;21039;-79
2022/05/16 10:23:54;;;;;;;4.85;2.30;;;;;;;22.94;43.23;101115.73;1696103;83;21136;-77
2022/05/16 10:26:23;;;;;;;3.67;2.33;;;;;;;22.96;43.11;101105.67;1664403;83;21667;-80
2022/05/16 10:28:58;;;;;;;8.35;2.85;;;;;;;22.96;43.11;101104.28;1680358;83;21103;-78
2022/05/16 10:34:42;;;;;;;5.97;2.55;;;;;;;22.95;43.11;101102.67;1699199;82;21096;-80
2022/05/16 10:37:09;;;;;;;7.10;2.47;;;;;;;22.96;43.06;101099.55;1709727;82;21103;-79
2022/05/16 10:39:37;;;;;;;4.72;2.27;;;;;;;22.96;43.02;101095.39;1675792;82;21572;-80
2022/05/16 10:42:10;;;;;;;3.80;2.30;;;;;;;22.96;42.90;101094.00;1673292;82;21177;-79
2022/05/16 10:44:48;;;;;;;7.75;2.92;;;;;;;22.98;42.85;101083.41;1704332;82;21069;-79
2022/05/16 10:47:31;;;;;;;4.30;2.55;;;;;;;22.99;42.84;101082.84;1707093;82;21470;-78
2022/05/16 10:50:23;;;;;;;5.40;2.80;;;;;;;23.01;42.82;101083.31;1696028;82;22003;-80
2022/05/16 10:53:13;;;;;;;10.43;3.08;;;;;;;23.02;42.75;101076.63;1696003;82;21116;-79
2022/05/16 10:56:15;;;;;;;8.48;2.45;;;;;;;23.04;42.87;101071.58;1695676;84;21076;-81
2022/05/16 10:59:10;;;;;;;10.72;2.90;;;;;;;23.06;43.10;101070.09;1655737;84;21240;-76
2022/05/16 11:02:24;;;;;;;13.08;3.10;;;;;;;23.07;43.18;101072.30;1710700;82;21499;-82
2022/05/16 11:05:21;;;;;;;12.90;2.55;;;;;;;23.08;43.45;101071.17;1716449;82;21068;-80
2022/05/16 11:08:08;;;;;;;8.83;2.40;;;;;;;23.09;43.65;101065.84;1708446;83;21871;-79
2022/05/16 11:11:04;;;;;;;15.90;2.90;;;;;;;23.09;43.60;101070.00;1694869;83;21470;-80
2022/05/16 11:13:50;;;;;;;9.40;2.47;;;;;;;23.09;43.31;101062.49;1704949;82;21263;-80
2022/05/16 11:16:24;;;;;;;11.43;2.70;;;;;;;23.10;43.31;101060.53;1719343;82;21524;-82
2022/05/16 11:19:17;;;;;;;8.25;2.80;;;;;;;23.10;43.32;101053.59;1707520;82;21519;-81
2022/05/16 11:22:04;;;;;;;6.58;2.60;;;;;;;23.09;43.31;101055.55;1704272;82;20985;-79
2022/05/16 11:24:53;;;;;;;7.80;2.60;;;;;;;23.09;43.35;101053.34;1705945;82;21116;-80
2022/05/16 11:27:45;;;;;;;9.45;2.87;;;;;;;23.08;43.24;101048.39;1719149;82;21083;-83
2022/05/16 11:30:52;;;;;;;8.73;2.45;;;;;;;23.07;43.17;101043.16;1714106;81;21070;-78
2022/05/16 11:33:50;;;;;;;10.20;3.00;;;;;;;23.07;43.23;101043.16;1715295;82;21249;-77
2022/05/16 11:36:32;;;;;;;21.07;3.22;;;;;;;23.07;43.21;101036.23;1688906;82;21150;-78
2022/05/16 11:39:17;;;;;;;20.65;3.33;;;;;;;23.07;43.33;101033.45;1724156;82;21062;-79
2022/05/16 11:42:01;;;;;;;25.48;4.20;;;;;;;23.08;43.43;101026.77;1707167;82;21967;-79
2022/05/16 11:45:11;;;;;;;24.57;4.22;;;;;;;23.07;43.43;101016.23;1724269;82;21167;-79
2022/05/16 11:48:20;;;;;;;17.12;3.35;;;;;;;23.08;43.49;101012.89;1710798;82;21704;-78
2022/05/16 11:51:05;;;;;;;11.35;3.05;;;;;;;23.08;43.57;101011.50;1682831;82;21334;-79
2022/05/16 11:53:50;;;;;;;16.20;2.80;;;;;;;23.08;43.59;101008.72;1632228;86;21202;-77
2022/05/16 12:02:30;;;;;;;17.52;2.92;;;;;;;23.14;43.70;100989.34;1721396;82;21126;-79
2022/05/16 12:05:22;;;;;;;18.42;2.87;;;;;;;23.19;43.67;100985.02;1720557;82;21171;-82
2022/05/16 12:07:57;;;;;;;9.38;3.00;;;;;;;23.22;43.66;100982.38;1704647;82;21067;-78
2022/05/16 12:10:26;;;;;;;12.25;3.05;;;;;;;23.26;43.60;100980.33;1712609;82;21116;-78
2022/05/16 12:13:27;;;;;;;10.03;2.47;;;;;;;23.25;43.51;100973.17;1706962;82;21035;-76
2022/05/16 12:16:15;;;;;;;7.75;2.77;;;;;;;23.23;43.54;100963.20;1712615;82;21143;-75
2022/05/16 12:18:50;;;;;;;10.10;3.05;;;;;;;23.23;43.57;100961.00;1720503;82;21062;-76